Time;durP1;ratioP1;P1;durP2;ratioP2;P2;SDS_P1;SDS_P2;PMS_P1;PMS_P2;Temp;Humidity;BMP_temperature;BMP_pressure;BME280_temperature;BME280_humidity;BME280_pressure;Samples;Min_cycle;Max_cycle;Signal;HPM_P1;HPM_P2
2023/01/13 00:01:16;;;;;;;36.58;8.65;;;8.10;87.30;;;;;;5053088;28;20404;-74
2023/01/13 00:03:42;;;;;;;;;;;8.10;87.50;;;;;;5052735;28;20036;-74
2023/01/13 00:06:12;;;;;;;30.77;6.45;;;8.10;87.60;;;;;;5053120;28;19924;-76
2023/01/13 00:08:38;;;;;;;55.83;20.70;;;8.10;87.80;;;;;;5052878;28;20041;-76
2023/01/13 00:11:04;;;;;;;30.10;7.43;;;8.10;87.70;;;;;;5036194;28;20436;-75
2023/01/13 00:13:31;;;;;;;30.85;8.93;;;8.10;87.80;;;;;;5036060;28;20047;-75
2023/01/13 00:16:02;;;;;;;25.52;8.57;;;8.10;87.90;;;;;;5052646;28;20049;-75
2023/01/13 00:18:28;;;;;;;37.55;7.72;;;8.10;87.80;;;;;;5052556;28;20037;-76
2023/01/13 00:21:14;;;;;;;31.70;9.02;;;8.10;87.60;;;;;;5019713;28;20170;-75
2023/01/13 00:23:44;;;;;;;32.03;7.82;;;8.00;87.90;;;;;;5052766;28;20044;-74
2023/01/13 00:26:13;;;;;;;35.42;6.82;;;8.10;87.80;;;;;;5052421;28;20087;-75
2023/01/13 00:28:39;;;;;;;26.13;7.03;;;8.10;87.40;;;;;;5052303;28;20044;-76
2023/01/13 00:31:10;;;;;;;31.80;7.68;;;8.10;87.40;;;;;;5035803;28;20056;-77
2023/01/13 00:33:37;;;;;;;35.33;8.27;;;8.10;87.70;;;;;;5052576;28;20047;-77
2023/01/13 00:36:05;;;;;;;28.08;6.50;;;8.00;88.10;;;;;;5035629;28;20048;-75
2023/01/13 00:38:33;;;;;;;29.67;6.30;;;8.00;88.10;;;;;;5052340;28;20043;-73
2023/01/13 00:41:01;;;;;;;35.90;7.53;;;8.00;88.10;;;;;;5052398;28;20520;-75
2023/01/13 00:43:29;;;;;;;35.03;7.55;;;7.90;88.40;;;;;;5035561;28;20037;-76
2023/01/13 00:45:54;;;;;;;32.70;7.80;;;8.00;88.00;;;;;;5052339;28;20408;-75
2023/01/13 00:48:22;;;;;;;27.00;7.20;;;8.00;87.80;;;;;;5052304;28;20037;-74
2023/01/13 00:51:16;;;;;;;36.30;8.23;;;8.00;87.30;;;;;;5052173;28;20401;-72
2023/01/13 00:53:44;;;;;;;28.23;6.05;;;8.00;87.20;;;;;;5050084;28;20436;-73
2023/01/13 00:56:23;;;;;;;30.30;7.38;;;8.00;87.10;;;;;;5051889;28;20037;-74
2023/01/13 00:58:50;;;;;;;26.67;7.53;;;8.00;87.00;;;;;;5018730;28;20516;-75
2023/01/13 01:01:21;;;;;;;34.97;7.22;;;7.80;87.10;;;;;;5051832;28;20040;-75
2023/01/13 01:03:48;;;;;;;39.38;8.80;;;7.80;87.20;;;;;;5052083;28;20389;-73
2023/01/13 01:06:22;;;;;;;23.58;5.57;;;7.80;87.30;;;;;;5052035;28;20140;-73
2023/01/13 01:08:48;;;;;;;32.17;7.45;;;7.80;87.40;;;;;;5035199;28;20045;-74
2023/01/13 01:11:17;;;;;;;37.03;7.63;;;7.80;87.00;;;;;;5035402;28;20412;-73
2023/01/13 01:13:44;;;;;;;22.88;6.18;;;7.70;87.00;;;;;;5035083;28;20045;-75
2023/01/13 01:16:15;;;;;;;35.03;9.32;;;7.80;87.30;;;;;;5050780;28;20040;-73
2023/01/13 01:18:43;;;;;;;32.45;8.25;;;7.70;87.00;;;;;;5051571;28;20124;-75
2023/01/13 01:21:09;;;;;;;36.30;8.73;;;7.70;87.10;;;;;;5034960;28;20091;-73
2023/01/13 01:23:36;;;;;;;37.15;7.35;;;7.80;87.00;;;;;;5034948;28;20072;-75
2023/01/13 01:26:23;;;;;;;27.13;6.53;;;7.80;86.80;;;;;;5051799;28;20045;-73
2023/01/13 01:28:49;;;;;;;27.23;7.07;;;7.70;87.20;;;;;;5034809;28;20041;-75
2023/01/13 01:31:24;;;;;;;29.33;5.88;;;7.70;87.30;;;;;;5051763;28;20098;-74
2023/01/13 01:33:50;;;;;;;38.50;8.73;;;7.70;87.50;;;;;;5034954;28;20045;-74
2023/01/13 01:36:18;;;;;;;29.98;6.97;;;7.70;87.40;;;;;;5051414;28;20045;-74
2023/01/13 01:38:44;;;;;;;33.45;7.20;;;7.70;87.70;;;;;;5051361;28;20037;-76
2023/01/13 01:41:17;;;;;;;36.33;6.78;;;7.70;87.70;;;;;;5051344;28;20075;-74
2023/01/13 01:43:57;;;;;;;40.03;8.43;;;7.80;87.60;;;;;;5051429;28;20033;-74
2023/01/13 01:46:31;;;;;;;41.78;8.07;;;7.80;87.50;;;;;;5051437;28;20047;-76
2023/01/13 01:49:04;;;;;;;44.00;7.00;;;7.80;87.00;;;;;;5051327;28;20049;-73
2023/01/13 01:51:37;;;;;;;40.00;10.95;;;7.80;87.20;;;;;;5051333;28;20041;-73
2023/01/13 01:54:07;;;;;;;32.05;7.82;;;7.90;87.10;;;;;;5051661;28;20060;-76
2023/01/13 01:56:34;;;;;;;36.85;9.00;;;8.00;87.10;;;;;;5051204;28;20106;-74
2023/01/13 01:59:00;;;;;;;28.10;7.25;;;8.00;87.20;;;;;;5051291;28;20111;-76
2023/01/13 02:01:25;;;;;;;24.65;6.22;;;8.00;87.10;;;;;;5051241;28;20493;-76
2023/01/13 02:04:15;;;;;;;40.97;8.27;;;8.00;87.10;;;;;;5051230;28;20043;-76
2023/01/13 02:06:43;;;;;;;34.92;7.72;;;8.00;86.30;;;;;;5051483;28;20041;-74
2023/01/13 02:09:09;;;;;;;39.75;9.80;;;8.00;86.60;;;;;;5051097;28;20558;-75
2023/01/13 02:14:27;;;;;;;33.90;8.40;;;8.10;86.80;;;;;;5037392;28;20435;-75
2023/01/13 02:17:20;;;;;;;39.40;8.57;;;8.10;86.80;;;;;;5051076;28;20033;-76
2023/01/13 02:19:58;;;;;;;47.58;9.88;;;8.10;87.00;;;;;;5034409;28;20041;-77
2023/01/13 02:22:41;;;;;;;32.35;8.40;;;8.10;87.20;;;;;;5051024;28;20477;-75
2023/01/13 02:25:25;;;;;;;37.67;7.95;;;8.10;86.80;;;;;;5050997;28;20270;-75
2023/01/13 02:28:17;;;;;;;34.53;8.98;;;8.10;87.00;;;;;;5053757;28;20520;-74
2023/01/13 02:34:07;;;;;;;35.45;8.32;;;8.00;87.50;;;;;;5054860;28;20053;-74
2023/01/13 02:36:42;;;;;;;40.83;8.85;;;8.00;87.90;;;;;;5054476;28;20084;-74
2023/01/13 02:39:14;;;;;;;43.28;10.02;;;8.00;87.90;;;;;;5054481;28;20041;-73
2023/01/13 02:44:45;;;;;;;35.60;6.80;;;8.10;88.20;;;;;;5054506;28;20060;-76
2023/01/13 02:47:24;;;;;;;38.35;8.25;;;8.10;88.30;;;;;;5054431;28;20053;-75
2023/01/13 02:50:04;;;;;;;40.80;8.35;;;8.00;88.40;;;;;;5054222;28;20079;-77
2023/01/13 02:52:48;;;;;;;37.45;7.90;;;8.00;88.60;;;;;;5037940;28;20045;-76
2023/01/13 02:55:26;;;;;;;29.95;7.30;;;8.10;88.60;;;;;;5054223;28;20045;-74
2023/01/13 02:57:54;;;;;;;41.35;9.15;;;8.10;88.70;;;;;;5037775;28;20037;-76
2023/01/13 03:00:22;;;;;;;31.75;7.90;;;8.10;88.50;;;;;;5037096;28;20167;-76
2023/01/13 03:02:48;;;;;;;42.53;8.13;;;8.10;88.50;;;;;;5054302;28;20045;-76
2023/01/13 03:05:15;;;;;;;33.28;7.55;;;8.10;88.50;;;;;;5037689;28;20041;-75
2023/01/13 03:08:22;;;;;;;36.15;7.40;;;8.20;88.40;;;;;;5038023;28;20036;-76
2023/01/13 03:11:07;;;;;;;32.05;6.60;;;8.20;88.40;;;;;;5004455;28;20501;-74
2023/01/13 03:14:01;;;;;;;30.92;7.40;;;8.20;88.00;;;;;;5054233;28;20405;-74
2023/01/13 03:16:48;;;;;;;27.08;6.22;;;8.30;87.40;;;;;;5053774;28;20101;-75
2023/01/13 03:19:36;;;;;;;29.25;6.45;;;8.40;87.10;;;;;;5053880;28;20044;-74
2023/01/13 03:22:20;;;;;;;30.88;6.65;;;8.40;86.50;;;;;;5053973;28;20099;-73
2023/01/13 03:24:49;;;;;;;;;;;8.40;86.40;;;;;;5054414;28;20493;-72
2023/01/13 03:27:19;;;;;;;22.30;5.50;;;8.40;85.90;;;;;;5053906;28;20007;-73
2023/01/13 03:29:55;;;;;;;23.83;5.72;;;8.40;85.30;;;;;;5037171;28;20048;-75
2023/01/13 03:32:41;;;;;;;26.88;6.40;;;8.30;85.60;;;;;;5053491;28;20041;-73
2023/01/13 03:35:14;;;;;;;30.67;5.80;;;8.30;85.60;;;;;;5053633;28;20041;-75
2023/01/13 03:37:45;;;;;;;26.90;6.53;;;8.20;86.40;;;;;;5053526;28;20440;-73
2023/01/13 03:40:19;;;;;;;33.80;8.73;;;8.20;86.60;;;;;;5052757;28;20041;-74
2023/01/13 03:45:35;;;;;;;37.92;8.15;;;8.10;87.10;;;;;;5053342;28;20137;-74
2023/01/13 03:48:06;;;;;;;32.17;7.60;;;8.10;87.70;;;;;;5053159;28;20052;-76
2023/01/13 03:50:41;;;;;;;39.45;8.77;;;8.00;88.10;;;;;;5053305;28;20053;-75
2023/01/13 03:53:13;;;;;;;42.17;7.63;;;8.00;87.90;;;;;;5053451;28;20552;-76
2023/01/13 03:55:44;;;;;;;28.80;6.55;;;8.00;87.80;;;;;;5052989;28;20051;-75
2023/01/13 03:58:16;;;;;;;25.92;6.45;;;8.00;87.90;;;;;;5036421;28;20099;-75
2023/01/13 04:00:57;;;;;;;33.00;8.27;;;8.00;88.00;;;;;;5052826;28;20057;-74
2023/01/13 04:03:33;;;;;;;34.00;6.97;;;8.00;88.00;;;;;;5036279;28;20037;-76
2023/01/13 04:06:19;;;;;;;30.40;7.30;;;8.00;88.20;;;;;;5052937;28;20048;-75
2023/01/13 04:08:54;;;;;;;44.00;9.25;;;8.00;88.40;;;;;;5052820;28;20049;-74
2023/01/13 04:11:36;;;;;;;31.63;6.65;;;8.00;88.40;;;;;;5036431;28;20457;-75
2023/01/13 04:14:05;;;;;;;31.35;7.95;;;8.00;88.20;;;;;;5052715;28;20052;-76
2023/01/13 04:16:31;;;;;;;35.83;8.20;;;8.10;88.20;;;;;;5052594;28;20041;-73
2023/01/13 04:18:57;;;;;;;28.55;7.20;;;8.10;88.00;;;;;;5052592;28;20041;-75
2023/01/13 04:21:22;;;;;;;35.38;7.70;;;8.10;87.90;;;;;;5052605;28;20056;-74
2023/01/13 04:23:50;;;;;;;26.15;6.57;;;8.10;87.90;;;;;;5053712;28;20044;-75
2023/01/13 04:26:16;;;;;;;28.08;6.93;;;8.20;87.60;;;;;;5052738;28;20111;-73
2023/01/13 04:28:42;;;;;;;33.10;7.05;;;8.20;87.80;;;;;;5052417;28;20045;-74
2023/01/13 04:31:08;;;;;;;25.77;6.80;;;8.20;87.40;;;;;;5052430;28;20040;-75
2023/01/13 04:33:33;;;;;;;30.88;6.50;;;8.30;87.10;;;;;;5052370;28;20048;-74
2023/01/13 04:35:59;;;;;;;31.23;5.75;;;8.30;86.60;;;;;;5052344;28;20128;-74
2023/01/13 04:38:25;;;;;;;24.15;5.72;;;8.40;86.30;;;;;;5035674;28;20485;-74
2023/01/13 04:40:50;;;;;;;29.80;6.15;;;8.40;85.30;;;;;;5052153;28;20044;-76
2023/01/13 04:43:16;;;;;;;25.25;5.82;;;8.40;85.40;;;;;;5052157;28;20116;-75
2023/01/13 04:45:42;;;;;;;30.05;6.55;;;8.40;85.30;;;;;;5052400;28;20047;-73
2023/01/13 04:48:08;;;;;;;32.20;6.20;;;8.30;85.30;;;;;;5052047;28;20505;-74
2023/01/13 04:50:34;;;;;;;31.80;5.35;;;8.30;85.40;;;;;;5035391;28;20076;-76
2023/01/13 04:53:00;;;;;;;24.17;4.70;;;8.30;85.20;;;;;;5052015;28;20080;-73
2023/01/13 04:55:27;;;;;;;23.40;4.80;;;8.40;84.70;;;;;;5052113;28;20128;-73
2023/01/13 04:57:52;;;;;;;22.23;5.22;;;8.40;84.10;;;;;;5052253;28;20103;-74
2023/01/13 05:00:20;;;;;;;31.98;5.20;;;8.50;84.00;;;;;;5051771;28;20509;-73
2023/01/13 05:02:49;;;;;;;25.65;5.68;;;8.50;83.60;;;;;;5035298;28;20048;-75
2023/01/13 05:05:15;;;;;;;22.98;4.97;;;8.40;83.80;;;;;;5051888;28;20036;-76
2023/01/13 05:07:40;;;;;;;23.33;4.72;;;8.50;83.40;;;;;;5051761;28;20044;-74
2023/01/13 05:10:07;;;;;;;25.75;5.20;;;8.50;83.60;;;;;;5035161;28;20045;-75
2023/01/13 05:18:01;;;;;;;19.67;4.93;;;8.50;83.70;;;;;;5051686;28;20051;-74
2023/01/13 05:20:27;;;;;;;31.65;5.88;;;8.50;83.60;;;;;;5051582;28;20090;-73
2023/01/13 05:25:40;;;;;;;20.10;6.03;;;8.40;84.10;;;;;;5051731;28;20048;-74
2023/01/13 05:28:06;;;;;;;29.02;5.25;;;8.50;83.60;;;;;;5051640;28;20127;-74
2023/01/13 05:30:36;;;;;;;19.65;5.22;;;8.50;83.30;;;;;;5051455;28;20053;-75
2023/01/13 05:33:02;;;;;;;28.08;5.55;;;8.50;83.60;;;;;;5051546;28;20071;-74
2023/01/13 05:35:28;;;;;;;24.25;3.80;;;8.50;84.00;;;;;;5051411;28;20486;-75
2023/01/13 05:37:54;;;;;;;24.60;5.13;;;8.40;84.20;;;;;;5034985;28;20050;-76
2023/01/13 05:43:24;;;;;;;;;;;8.40;84.10;;;;;;5051915;28;20041;-75
2023/01/13 05:46:03;;;;;;;22.98;4.20;;;8.50;83.80;;;;;;5051451;28;19921;-74
2023/01/13 05:48:32;;;;;;;25.58;5.38;;;8.50;83.80;;;;;;5051432;28;20508;-74
2023/01/13 05:50:58;;;;;;;20.27;5.68;;;8.50;83.80;;;;;;5034763;28;20041;-76
2023/01/13 05:53:24;;;;;;;23.88;5.13;;;8.50;84.30;;;;;;5051590;28;20118;-76
2023/01/13 05:55:50;;;;;;;23.38;5.40;;;8.60;84.70;;;;;;5034646;28;20040;-76
2023/01/13 05:58:18;;;;;;;26.40;5.88;;;8.50;85.00;;;;;;5051344;28;20033;-76
2023/01/13 06:00:44;;;;;;;22.08;4.97;;;8.50;85.00;;;;;;5051017;28;20083;-75
2023/01/13 06:03:10;;;;;;;25.15;4.43;;;8.50;84.90;;;;;;5054755;28;20052;-76
2023/01/13 06:05:37;;;;;;;30.15;6.38;;;8.40;85.30;;;;;;5055438;28;20041;-73
2023/01/13 06:08:05;;;;;;;15.05;3.55;;;8.40;85.10;;;;;;5055306;28;20045;-74
2023/01/13 06:10:31;;;;;;;28.27;5.50;;;8.40;85.10;;;;;;5054986;28;20041;-76
2023/01/13 06:12:57;;;;;;;21.42;5.18;;;8.40;85.60;;;;;;5038407;28;20055;-75
2023/01/13 06:15:24;;;;;;;24.50;5.03;;;8.30;85.60;;;;;;5038278;28;20037;-73
2023/01/13 06:17:49;;;;;;;27.42;4.93;;;8.40;85.80;;;;;;5054953;28;20044;-77
2023/01/13 06:20:16;;;;;;;22.02;5.40;;;8.30;86.20;;;;;;5055111;28;20440;-74
2023/01/13 06:22:45;;;;;;;16.85;4.57;;;8.20;86.10;;;;;;5038276;28;20078;-74
2023/01/13 06:25:36;;;;;;;20.55;5.05;;;8.30;86.00;;;;;;5054778;28;20488;-75
2023/01/13 06:28:02;;;;;;;22.48;4.40;;;8.30;86.10;;;;;;5054873;28;20128;-76
2023/01/13 06:30:34;;;;;;;27.75;5.38;;;8.30;86.20;;;;;;5051981;28;20115;-75
2023/01/13 06:33:03;;;;;;;27.27;5.07;;;8.20;86.80;;;;;;5044269;28;20063;-74
2023/01/13 06:35:34;;;;;;;22.77;6.43;;;8.10;87.50;;;;;;5054620;28;20506;-75
2023/01/13 06:38:02;;;;;;;24.85;4.65;;;8.10;87.90;;;;;;5037908;28;20041;-75
2023/01/13 06:40:28;;;;;;;27.27;4.80;;;8.00;88.50;;;;;;5040309;28;20391;-75
2023/01/13 06:43:14;;;;;;;15.63;3.70;;;8.00;88.80;;;;;;5043012;28;20044;-74
2023/01/13 06:45:47;;;;;;;22.05;4.93;;;7.90;88.80;;;;;;5050271;28;20034;-77
2023/01/13 06:48:13;;;;;;;18.83;3.55;;;7.90;88.80;;;;;;5054703;28;20040;-74
2023/01/13 06:50:40;;;;;;;21.55;5.78;;;7.90;89.20;;;;;;5051349;28;20459;-75
2023/01/13 06:53:06;;;;;;;23.75;4.97;;;7.90;89.20;;;;;;5054229;28;20075;-77
2023/01/13 06:55:32;;;;;;;25.95;6.32;;;7.80;89.40;;;;;;5054283;28;20045;-75
2023/01/13 06:57:58;;;;;;;17.15;4.20;;;7.80;89.80;;;;;;5070868;28;20041;-75
2023/01/13 07:00:25;;;;;;;29.67;6.35;;;7.80;89.70;;;;;;5051910;28;20057;-77
2023/01/13 07:02:51;;;;;;;30.60;6.47;;;7.80;89.90;;;;;;5036709;28;20032;-74
2023/01/13 07:05:18;;;;;;;26.90;5.28;;;7.80;89.90;;;;;;5044402;28;20095;-75
2023/01/13 07:07:44;;;;;;;30.35;7.43;;;7.70;90.10;;;;;;5026347;28;20068;-74
2023/01/13 07:10:12;;;;;;;22.88;5.45;;;7.70;90.10;;;;;;5043747;28;20481;-77
2023/01/13 07:15:25;;;;;;;25.20;5.07;;;7.70;90.00;;;;;;5063722;28;20456;-77
2023/01/13 07:17:51;;;;;;;21.05;4.85;;;7.80;89.60;;;;;;5054694;28;20461;-75
2023/01/13 07:20:17;;;;;;;23.98;6.00;;;7.80;89.20;;;;;;5027588;28;20043;-74
2023/01/13 07:22:44;;;;;;;19.33;5.05;;;7.80;89.20;;;;;;5047644;28;20041;-76
2023/01/13 07:25:10;;;;;;;22.05;4.50;;;7.80;88.90;;;;;;5053655;28;20132;-77
2023/01/13 07:27:36;;;;;;;25.95;7.03;;;7.80;88.50;;;;;;5053621;28;20044;-79
2023/01/13 07:30:04;;;;;;;17.17;4.55;;;7.80;88.50;;;;;;5053167;28;20079;-75
2023/01/13 07:32:32;;;;;;;23.15;5.05;;;7.80;88.60;;;;;;5052090;28;20094;-76
2023/01/13 07:35:03;;;;;;;28.85;4.20;;;7.80;88.50;;;;;;5052939;28;20118;-75
2023/01/13 07:37:30;;;;;;;24.45;6.60;;;7.90;88.70;;;;;;5053070;28;20045;-77
2023/01/13 07:39:56;;;;;;;20.83;4.47;;;7.90;88.60;;;;;;5036292;28;20041;-75
2023/01/13 07:45:06;;;;;;;21.20;5.07;;;8.00;88.40;;;;;;5050426;28;20267;-75
2023/01/13 07:47:32;;;;;;;26.05;4.93;;;8.00;88.10;;;;;;5036513;28;20040;-75
2023/01/13 07:49:57;;;;;;;22.58;5.35;;;8.00;87.70;;;;;;5053079;28;20538;-76
2023/01/13 07:52:23;;;;;;;26.13;4.78;;;8.00;88.00;;;;;;5036202;28;20504;-75
2023/01/13 07:54:49;;;;;;;23.13;4.80;;;8.10;87.60;;;;;;5036380;28;20048;-76
2023/01/13 07:57:14;;;;;;;17.83;4.80;;;8.10;87.10;;;;;;5053061;28;20045;-74
2023/01/13 07:59:40;;;;;;;23.75;5.55;;;8.10;87.10;;;;;;5048965;28;20045;-75
2023/01/13 08:02:10;;;;;;;15.95;3.85;;;8.10;87.00;;;;;;5040898;28;20041;-75
2023/01/13 08:04:35;;;;;;;26.85;6.25;;;8.20;86.40;;;;;;5040869;28;20037;-76
2023/01/13 08:07:03;;;;;;;29.95;5.03;;;8.20;86.60;;;;;;5032280;28;20060;-78
2023/01/13 08:09:29;;;;;;;23.75;4.78;;;8.20;86.50;;;;;;5031876;28;20029;-75
2023/01/13 08:14:46;;;;;;;25.60;6.55;;;8.20;86.40;;;;;;5023690;28;20584;-77
2023/01/13 08:17:11;;;;;;;39.60;5.97;;;8.30;86.30;;;;;;5032837;28;20103;-78
2023/01/13 08:19:37;;;;;;;24.10;5.60;;;8.30;86.30;;;;;;5032629;28;20049;-76
2023/01/13 08:22:03;;;;;;;30.65;4.25;;;8.30;86.10;;;;;;5032668;28;20046;-75
2023/01/13 08:24:28;;;;;;;23.95;5.30;;;8.30;86.20;;;;;;5032310;28;20100;-75
2023/01/13 08:26:54;;;;;;;22.60;6.45;;;8.30;86.30;;;;;;5032759;28;20037;-78
2023/01/13 08:29:20;;;;;;;31.15;7.10;;;8.30;86.60;;;;;;5032480;28;20482;-76
2023/01/13 08:31:45;;;;;;;21.17;4.53;;;8.30;86.60;;;;;;5032644;28;20087;-75
2023/01/13 08:34:11;;;;;;;19.08;4.65;;;8.40;86.40;;;;;;5032369;28;20772;-79
2023/01/13 08:36:37;;;;;;;19.05;4.32;;;8.30;86.30;;;;;;5015919;28;20053;-77
2023/01/13 08:39:05;;;;;;;20.70;4.20;;;8.30;86.50;;;;;;5032817;28;20084;-76
2023/01/13 08:44:28;;;;;;;17.83;4.10;;;8.30;86.60;;;;;;5027777;28;20567;-77
2023/01/13 08:46:54;;;;;;;17.35;4.78;;;8.10;87.10;;;;;;5032755;28;20038;-75
2023/01/13 08:49:20;;;;;;;20.83;3.83;;;8.10;87.60;;;;;;5032882;28;20072;-73
2023/01/13 08:51:47;;;;;;;23.15;4.57;;;8.00;88.30;;;;;;5032785;28;20041;-74
2023/01/13 08:54:13;;;;;;;22.23;5.15;;;8.00;88.50;;;;;;5045728;28;20398;-77
2023/01/13 08:56:41;;;;;;;23.88;5.05;;;7.90;88.90;;;;;;5035728;28;20041;-76
2023/01/13 08:59:18;;;;;;;26.05;5.45;;;7.90;89.40;;;;;;5035353;28;20041;-77
2023/01/13 09:01:44;;;;;;;25.23;5.30;;;7.70;90.20;;;;;;5052678;28;20128;-76
2023/01/13 09:04:17;;;;;;;22.05;4.78;;;7.70;90.70;;;;;;5052610;28;20048;-74
2023/01/13 09:06:43;;;;;;;35.72;5.85;;;7.70;91.10;;;;;;5069244;28;20400;-75
2023/01/13 09:09:08;;;;;;;32.40;7.22;;;7.80;91.00;;;;;;5052314;28;20079;-77
2023/01/13 09:14:25;;;;;;;26.40;6.13;;;7.70;91.50;;;;;;5069049;28;20489;-75
2023/01/13 09:16:51;;;;;;;30.98;6.13;;;7.70;91.90;;;;;;5052263;28;20515;-78
2023/01/13 09:19:17;;;;;;;35.40;6.43;;;7.70;92.00;;;;;;5052417;28;20037;-75
2023/01/13 09:24:46;;;;;;;20.80;5.13;;;7.60;92.40;;;;;;5036827;28;20037;-76
2023/01/13 09:27:14;;;;;;;18.75;4.55;;;7.60;92.40;;;;;;5046780;28;20121;-74
2023/01/13 09:29:40;;;;;;;26.88;5.90;;;7.70;92.20;;;;;;5066301;28;20081;-74
2023/01/13 09:32:06;;;;;;;23.65;5.05;;;7.70;92.10;;;;;;5066258;28;20045;-74
2023/01/13 09:37:16;;;;;;;;;;;7.60;92.20;;;;;;5069444;28;20037;-76
2023/01/13 09:39:42;;;;;;;29.67;5.72;;;7.60;92.10;;;;;;5054808;28;20007;-75
2023/01/13 09:45:04;;;;;;;22.10;4.50;;;7.70;92.00;;;;;;5072286;28;20496;-74
2023/01/13 09:47:31;;;;;;;25.23;4.65;;;7.70;91.90;;;;;;5072222;28;20094;-75
2023/01/13 09:50:22;;;;;;;20.95;5.25;;;7.70;92.00;;;;;;5055513;28;20357;-75
2023/01/13 09:52:48;;;;;;;24.17;4.20;;;7.70;92.00;;;;;;5031526;28;20485;-75
2023/01/13 09:55:16;;;;;;;16.17;3.90;;;7.80;91.50;;;;;;5055274;28;20044;-73
2023/01/13 09:57:41;;;;;;;20.10;4.47;;;7.80;91.40;;;;;;5055524;28;20417;-76
2023/01/13 10:00:32;;;;;;;15.52;4.40;;;7.90;91.50;;;;;;5037911;28;20068;-75
2023/01/13 10:03:18;;;;;;;20.02;4.13;;;7.90;91.30;;;;;;5038208;28;20052;-76
2023/01/13 10:05:55;;;;;;;22.02;5.32;;;7.90;91.10;;;;;;5045345;28;20045;-74
2023/01/13 10:08:43;;;;;;;18.48;4.20;;;7.90;91.00;;;;;;5046210;28;20435;-75
2023/01/13 10:14:21;;;;;;;24.52;5.18;;;8.10;90.60;;;;;;5071764;28;20106;-76
2023/01/13 10:16:55;;;;;;;17.85;5.22;;;8.10;90.30;;;;;;5054839;28;20111;-78
2023/01/13 10:19:38;;;;;;;;;;;8.10;90.20;;;;;;5071901;28;20041;-76
2023/01/13 10:22:41;;;;;;;20.33;5.28;;;8.20;90.00;;;;;;5038323;28;19924;-75
2023/01/13 10:25:28;;;;;;;12.73;4.43;;;8.20;90.00;;;;;;5038175;28;20045;-76
2023/01/13 10:28:00;;;;;;;19.00;4.35;;;8.30;89.80;;;;;;5054631;28;20037;-75
2023/01/13 10:30:32;;;;;;;26.17;5.38;;;8.30;89.50;;;;;;5054816;28;20044;-76
2023/01/13 10:33:13;;;;;;;18.83;4.45;;;8.30;89.60;;;;;;5054305;28;20083;-76
2023/01/13 10:36:15;;;;;;;23.23;4.90;;;8.30;89.60;;;;;;5054720;28;20493;-77
2023/01/13 10:38:46;;;;;;;18.92;4.53;;;8.30;89.40;;;;;;4994526;28;20390;-74
2023/01/13 10:41:15;;;;;;;13.90;3.97;;;8.40;89.10;;;;;;5042197;28;20053;-76
2023/01/13 10:44:03;;;;;;;20.65;4.05;;;8.40;88.80;;;;;;5054959;28;20064;-76
2023/01/13 10:46:34;;;;;;;15.18;4.07;;;8.50;88.60;;;;;;5037738;28;20051;-77
2023/01/13 10:49:02;;;;;;;18.10;4.35;;;8.40;88.60;;;;;;5054457;28;20044;-75
2023/01/13 10:51:28;;;;;;;18.23;4.18;;;8.50;88.40;;;;;;5054296;28;20124;-77
2023/01/13 10:53:58;;;;;;;23.73;4.75;;;8.40;88.80;;;;;;5037732;28;20052;-75
2023/01/13 10:56:29;;;;;;;19.17;3.75;;;8.40;88.80;;;;;;5054080;28;20090;-75
2023/01/13 10:59:28;;;;;;;14.43;4.72;;;8.50;88.80;;;;;;5038062;28;20431;-77
2023/01/13 11:02:15;;;;;;;14.95;4.63;;;8.60;88.00;;;;;;5010879;28;20053;-76
2023/01/13 11:04:53;;;;;;;13.38;4.07;;;8.60;87.90;;;;;;5053813;28;20477;-74
2023/01/13 11:07:29;;;;;;;19.42;4.18;;;8.80;87.10;;;;;;5053990;28;20503;-75
2023/01/13 11:10:21;;;;;;;15.48;3.75;;;8.80;87.10;;;;;;5054003;28;20048;-75
2023/01/13 11:13:15;;;;;;;14.23;4.78;;;8.80;87.20;;;;;;5044836;28;20044;-77
2023/01/13 11:16:14;;;;;;;16.25;4.82;;;8.90;87.30;;;;;;5054021;28;20462;-77
2023/01/13 11:22:10;;;;;;;12.88;3.55;;;8.90;87.50;;;;;;5045057;28;20037;-79
2023/01/13 11:24:57;;;;;;;11.55;4.05;;;9.00;86.50;;;;;;5053683;28;20519;-76
2023/01/13 11:27:35;;;;;;;15.55;3.45;;;9.00;86.50;;;;;;5037024;28;20040;-74
2023/01/13 11:30:08;;;;;;;19.02;4.43;;;8.90;87.00;;;;;;5053711;28;20049;-76
2023/01/13 11:32:39;;;;;;;17.80;3.92;;;8.90;87.10;;;;;;5053692;28;20485;-78
2023/01/13 11:35:18;;;;;;;20.17;5.55;;;8.80;87.40;;;;;;5053758;28;20094;-76
2023/01/13 11:37:55;;;;;;;16.65;4.03;;;8.90;87.20;;;;;;5053720;28;20388;-76
2023/01/13 11:40:45;;;;;;;16.55;4.03;;;8.90;86.10;;;;;;5053731;28;20137;-76
2023/01/13 11:43:14;;;;;;;14.93;2.90;;;8.90;86.30;;;;;;5053070;28;20524;-75
2023/01/13 11:45:54;;;;;;;13.60;3.55;;;8.90;86.50;;;;;;5053449;28;20037;-76
2023/01/13 11:48:25;;;;;;;15.57;3.08;;;9.10;86.10;;;;;;5053189;28;20040;-77
2023/01/13 11:51:10;;;;;;;16.55;4.30;;;9.20;85.50;;;;;;5053304;28;20045;-76
2023/01/13 11:54:13;;;;;;;13.23;2.90;;;9.20;85.30;;;;;;5053249;28;20045;-76
2023/01/13 11:57:03;;;;;;;14.10;3.47;;;9.20;84.60;;;;;;5053021;28;20044;-75
2023/01/13 11:59:56;;;;;;;20.65;3.22;;;9.20;85.20;;;;;;5035454;28;20132;-77
2023/01/13 12:03:01;;;;;;;19.08;4.07;;;9.20;84.90;;;;;;5036315;28;20492;-75
2023/01/13 12:05:38;;;;;;;17.23;4.20;;;9.30;85.30;;;;;;5012786;28;20075;-77
2023/01/13 12:08:09;;;;;;;18.58;3.28;;;9.40;85.00;;;;;;5053174;28;20122;-78
2023/01/13 12:10:43;;;;;;;17.90;4.05;;;9.30;84.80;;;;;;5053116;28;20045;-76
2023/01/13 12:13:47;;;;;;;10.38;2.60;;;9.30;84.90;;;;;;5052884;28;20505;-76
2023/01/13 12:16:22;;;;;;;13.15;3.50;;;9.20;84.80;;;;;;5052572;28;20049;-76
2023/01/13 12:19:06;;;;;;;13.00;3.05;;;9.20;85.80;;;;;;5052695;28;20043;-78
2023/01/13 12:21:55;;;;;;;17.60;3.47;;;9.10;85.80;;;;;;5052687;28;20040;-76
2023/01/13 12:24:34;;;;;;;10.38;2.35;;;9.10;85.80;;;;;;5052629;28;20033;-76
2023/01/13 12:27:21;;;;;;;38.72;4.55;;;9.10;85.60;;;;;;5052781;28;20045;-77
2023/01/13 12:29:50;;;;;;;12.85;4.30;;;9.10;86.00;;;;;;5052735;28;20064;-78
2023/01/13 12:32:20;;;;;;;14.95;3.47;;;9.10;85.80;;;;;;5052692;28;20045;-75
2023/01/13 12:35:24;;;;;;;13.07;3.08;;;9.00;86.20;;;;;;5035708;28;20047;-77
2023/01/13 12:38:19;;;;;;;17.92;3.30;;;9.00;86.30;;;;;;5052213;28;20075;-76
2023/01/13 12:41:09;;;;;;;14.73;3.50;;;9.00;86.10;;;;;;5024542;28;20064;-75
2023/01/13 12:46:21;;;;;;;13.18;3.35;;;8.90;86.50;;;;;;5051961;28;20060;-75
2023/01/13 12:48:53;;;;;;;15.90;3.88;;;9.00;86.40;;;;;;5051933;28;20254;-74
2023/01/13 12:51:51;;;;;;;19.08;3.85;;;9.00;85.90;;;;;;5035433;28;20048;-74
2023/01/13 12:54:35;;;;;;;15.82;3.78;;;9.00;85.50;;;;;;5034671;28;20393;-76
2023/01/13 12:57:18;;;;;;;18.58;3.97;;;9.00;85.80;;;;;;5051771;28;20451;-75
2023/01/13 13:00:05;;;;;;;13.20;3.17;;;9.10;85.30;;;;;;5051868;28;20067;-76
2023/01/13 13:02:31;;;;;;;13.32;3.65;;;9.10;85.60;;;;;;5051646;28;20559;-76
2023/01/13 13:05:20;;;;;;;14.48;4.00;;;9.20;85.90;;;;;;5052045;28;20460;-78
2023/01/13 13:07:50;;;;;;;15.75;3.10;;;9.10;86.30;;;;;;5034953;28;20076;-75
2023/01/13 13:10:28;;;;;;;11.13;4.25;;;9.00;86.80;;;;;;5051812;28;20080;-75
2023/01/13 13:13:17;;;;;;;19.83;4.90;;;9.10;86.80;;;;;;5052182;28;20095;-76
2023/01/13 13:15:44;;;;;;;15.90;3.63;;;9.10;86.50;;;;;;5035020;28;20048;-74
2023/01/13 13:18:16;;;;;;;14.15;2.85;;;9.10;86.10;;;;;;5051879;28;20362;-76
2023/01/13 13:21:05;;;;;;;10.52;2.70;;;9.10;85.80;;;;;;5051581;28;20041;-78
2023/01/13 13:23:46;;;;;;;16.25;4.15;;;9.10;85.70;;;;;;5051900;28;20129;-73
2023/01/13 13:26:20;;;;;;;12.93;2.90;;;9.10;85.20;;;;;;5051403;28;20041;-77
2023/01/13 13:28:54;;;;;;;11.40;2.83;;;9.20;85.20;;;;;;5035305;28;20037;-74
2023/01/13 13:31:23;;;;;;;;;;;9.20;85.00;;;;;;5035315;28;20045;-76
2023/01/13 13:34:30;;;;;;;13.70;2.70;;;9.20;85.50;;;;;;5051560;28;19917;-74
2023/01/13 13:37:08;;;;;;;14.75;3.08;;;9.10;85.70;;;;;;5030802;28;20045;-76
2023/01/13 13:48:23;;;;;;;12.50;3.58;;;9.10;85.60;;;;;;5050102;28;20047;-75
2023/01/13 13:50:55;;;;;;;18.33;4.70;;;9.10;85.40;;;;;;5051302;28;20068;-73
2023/01/13 13:53:22;;;;;;;13.35;3.30;;;9.00;85.70;;;;;;5036155;28;20036;-74
2023/01/13 13:55:54;;;;;;;15.55;3.35;;;9.10;86.30;;;;;;5051376;28;20440;-74
2023/01/13 13:58:20;;;;;;;19.02;3.50;;;9.00;86.30;;;;;;5051225;28;20040;-75
2023/01/13 14:00:47;;;;;;;18.15;3.97;;;9.00;86.60;;;;;;5051102;28;20079;-73
2023/01/13 14:03:30;;;;;;;18.83;3.10;;;9.00;86.80;;;;;;5051187;28;20048;-73
2023/01/13 14:06:01;;;;;;;20.30;3.47;;;9.00;86.80;;;;;;5051272;28;20041;-76
2023/01/13 14:08:30;;;;;;;15.48;4.05;;;9.00;86.60;;;;;;5051163;28;20037;-76
2023/01/13 14:10:56;;;;;;;9.75;2.95;;;9.00;86.70;;;;;;5051410;28;20424;-76
2023/01/13 14:13:31;;;;;;;21.13;4.32;;;9.00;86.60;;;;;;5051122;28;20041;-77
2023/01/13 14:15:58;;;;;;;12.38;3.75;;;9.00;86.60;;;;;;5050960;28;20076;-75
2023/01/13 14:18:25;;;;;;;19.20;3.90;;;9.10;86.30;;;;;;5051257;28;20076;-73
2023/01/13 14:20:52;;;;;;;16.60;3.38;;;9.10;86.30;;;;;;5034582;28;20041;-73